sensor_id;sensor_type;location;lat;lon;timestamp;temperature;humidity
28087;DHT22;15392;48.912;8.380;2023-02-13T00:01:35;11.30;50.60
28087;DHT22;15392;48.912;8.380;2023-02-13T00:04:00;11.30;50.70
28087;DHT22;15392;48.912;8.380;2023-02-13T00:06:26;11.30;50.70
28087;DHT22;15392;48.912;8.380;2023-02-13T00:08:52;11.20;50.70
28087;DHT22;15392;48.912;8.380;2023-02-13T00:11:18;11.20;50.70
28087;DHT22;15392;48.912;8.380;2023-02-13T00:13:45;11.20;50.70
28087;DHT22;15392;48.912;8.380;2023-02-13T00:16:10;11.10;50.70
28087;DHT22;15392;48.912;8.380;2023-02-13T00:18:37;11.10;50.80
28087;DHT22;15392;48.912;8.380;2023-02-13T00:21:09;11.10;50.80
28087;DHT22;15392;48.912;8.380;2023-02-13T00:23:37;11.10;50.90
28087;DHT22;15392;48.912;8.380;2023-02-13T00:26:14;11.00;50.80
28087;DHT22;15392;48.912;8.380;2023-02-13T00:28:41;11.00;50.80
28087;DHT22;15392;48.912;8.380;2023-02-13T00:31:10;11.00;50.80
28087;DHT22;15392;48.912;8.380;2023-02-13T00:33:37;11.00;50.80
28087;DHT22;15392;48.912;8.380;2023-02-13T00:36:18;11.00;50.60
28087;DHT22;15392;48.912;8.380;2023-02-13T00:38:45;10.90;50.60
28087;DHT22;15392;48.912;8.380;2023-02-13T00:41:12;10.80;50.60
28087;DHT22;15392;48.912;8.380;2023-02-13T00:43:39;10.80;50.70
28087;DHT22;15392;48.912;8.380;2023-02-13T00:46:05;10.80;50.70
28087;DHT22;15392;48.912;8.380;2023-02-13T00:48:32;10.70;50.70
28087;DHT22;15392;48.912;8.380;2023-02-13T00:50:59;10.70;50.80
28087;DHT22;15392;48.912;8.380;2023-02-13T00:53:25;10.60;50.80
28087;DHT22;15392;48.912;8.380;2023-02-13T00:55:52;10.60;50.80
28087;DHT22;15392;48.912;8.380;2023-02-13T00:58:18;10.60;50.70
28087;DHT22;15392;48.912;8.380;2023-02-13T01:00:45;10.60;50.70
28087;DHT22;15392;48.912;8.380;2023-02-13T01:03:15;10.60;50.70
28087;DHT22;15392;48.912;8.380;2023-02-13T01:05:42;10.50;50.60
28087;DHT22;15392;48.912;8.380;2023-02-13T01:08:08;10.50;50.70
28087;DHT22;15392;48.912;8.380;2023-02-13T01:10:37;10.40;50.70
28087;DHT22;15392;48.912;8.380;2023-02-13T01:13:03;10.40;50.80
28087;DHT22;15392;48.912;8.380;2023-02-13T01:15:30;10.30;50.90
28087;DHT22;15392;48.912;8.380;2023-02-13T01:17:57;10.30;50.90
28087;DHT22;15392;48.912;8.380;2023-02-13T01:20:23;10.30;51.00
28087;DHT22;15392;48.912;8.380;2023-02-13T01:22:50;10.30;51.00
28087;DHT22;15392;48.912;8.380;2023-02-13T01:25:16;10.30;51.10
28087;DHT22;15392;48.912;8.380;2023-02-13T01:27:42;10.20;51.10
28087;DHT22;15392;48.912;8.380;2023-02-13T01:30:10;10.20;51.20
28087;DHT22;15392;48.912;8.380;2023-02-13T01:32:38;10.20;51.20
28087;DHT22;15392;48.912;8.380;2023-02-13T01:35:05;10.20;51.40
28087;DHT22;15392;48.912;8.380;2023-02-13T01:37:31;10.20;51.00
28087;DHT22;15392;48.912;8.380;2023-02-13T01:39:57;10.10;51.00
28087;DHT22;15392;48.912;8.380;2023-02-13T01:42:28;10.20;51.00
28087;DHT22;15392;48.912;8.380;2023-02-13T01:44:57;10.10;51.00
28087;DHT22;15392;48.912;8.380;2023-02-13T01:53:09;10.00;50.90
28087;DHT22;15392;48.912;8.380;2023-02-13T01:55:46;10.00;50.90
28087;DHT22;15392;48.912;8.380;2023-02-13T01:58:26;10.00;50.90
28087;DHT22;15392;48.912;8.380;2023-02-13T02:00:56;9.90;50.90
28087;DHT22;15392;48.912;8.380;2023-02-13T02:03:39;9.90;50.80
28087;DHT22;15392;48.912;8.380;2023-02-13T02:06:11;9.80;50.80
28087;DHT22;15392;48.912;8.380;2023-02-13T02:08:41;9.80;50.80
28087;DHT22;15392;48.912;8.380;2023-02-13T02:11:16;9.70;50.80
28087;DHT22;15392;48.912;8.380;2023-02-13T02:13:51;9.70;51.10
28087;DHT22;15392;48.912;8.380;2023-02-13T02:16:17;9.60;51.00
28087;DHT22;15392;48.912;8.380;2023-02-13T02:18:43;9.60;51.20
28087;DHT22;15392;48.912;8.380;2023-02-13T02:41:51;9.40;51.10
28087;DHT22;15392;48.912;8.380;2023-02-13T02:44:41;9.30;50.80
28087;DHT22;15392;48.912;8.380;2023-02-13T02:47:24;9.30;50.90
28087;DHT22;15392;48.912;8.380;2023-02-13T02:50:50;9.20;50.90
28087;DHT22;15392;48.912;8.380;2023-02-13T02:53:30;9.20;51.20
28087;DHT22;15392;48.912;8.380;2023-02-13T02:56:44;9.10;51.30
28087;DHT22;15392;48.912;8.380;2023-02-13T02:59:04;9.10;51.00
28087;DHT22;15392;48.912;8.380;2023-02-13T03:01:53;9.10;51.20
28087;DHT22;15392;48.912;8.380;2023-02-13T03:04:41;9.00;51.10
28087;DHT22;15392;48.912;8.380;2023-02-13T03:07:28;9.00;51.20
28087;DHT22;15392;48.912;8.380;2023-02-13T03:09:59;8.90;51.30
28087;DHT22;15392;48.912;8.380;2023-02-13T03:15:43;8.90;51.40
28087;DHT22;15392;48.912;8.380;2023-02-13T03:18:30;8.90;51.50
28087;DHT22;15392;48.912;8.380;2023-02-13T03:24:48;8.80;51.60
28087;DHT22;15392;48.912;8.380;2023-02-13T03:36:29;8.80;51.40
28087;DHT22;15392;48.912;8.380;2023-02-13T03:40:16;8.70;51.50
28087;DHT22;15392;48.912;8.380;2023-02-13T03:42:27;8.80;51.30
28087;DHT22;15392;48.912;8.380;2023-02-13T03:45:05;8.70;51.30
28087;DHT22;15392;48.912;8.380;2023-02-13T03:47:55;8.60;51.20
28087;DHT22;15392;48.912;8.380;2023-02-13T03:50:24;8.60;51.20
28087;DHT22;15392;48.912;8.380;2023-02-13T03:53:11;8.60;51.30
28087;DHT22;15392;48.912;8.380;2023-02-13T03:55:41;8.50;51.40
28087;DHT22;15392;48.912;8.380;2023-02-13T03:58:37;8.50;51.30
28087;DHT22;15392;48.912;8.380;2023-02-13T04:01:28;8.40;51.40
28087;DHT22;15392;48.912;8.380;2023-02-13T04:04:11;8.40;51.40
28087;DHT22;15392;48.912;8.380;2023-02-13T04:10:01;8.30;51.50
28087;DHT22;15392;48.912;8.380;2023-02-13T04:18:29;8.20;51.80
28087;DHT22;15392;48.912;8.380;2023-02-13T04:21:00;8.20;51.60
28087;DHT22;15392;48.912;8.380;2023-02-13T04:23:29;8.20;51.60
28087;DHT22;15392;48.912;8.380;2023-02-13T04:25:56;8.20;51.60
28087;DHT22;15392;48.912;8.380;2023-02-13T04:28:22;8.20;51.60
28087;DHT22;15392;48.912;8.380;2023-02-13T04:30:48;8.20;51.60
28087;DHT22;15392;48.912;8.380;2023-02-13T04:33:14;8.10;51.50
28087;DHT22;15392;48.912;8.380;2023-02-13T04:35:40;8.10;51.50
28087;DHT22;15392;48.912;8.380;2023-02-13T04:38:06;8.10;51.50
28087;DHT22;15392;48.912;8.380;2023-02-13T04:40:32;8.10;51.50
28087;DHT22;15392;48.912;8.380;2023-02-13T04:42:58;8.10;51.60
28087;DHT22;15392;48.912;8.380;2023-02-13T04:45:24;8.10;51.60
28087;DHT22;15392;48.912;8.380;2023-02-13T04:47:51;8.10;51.50
28087;DHT22;15392;48.912;8.380;2023-02-13T04:50:18;8.00;51.50
28087;DHT22;15392;48.912;8.380;2023-02-13T04:52:44;8.00;51.50
28087;DHT22;15392;48.912;8.380;2023-02-13T04:55:09;8.00;51.50
28087;DHT22;15392;48.912;8.380;2023-02-13T04:57:35;8.00;51.50
28087;DHT22;15392;48.912;8.380;2023-02-13T05:00:01;8.00;51.60
28087;DHT22;15392;48.912;8.380;2023-02-13T05:02:28;8.00;51.60
28087;DHT22;15392;48.912;8.380;2023-02-13T05:04:53;7.90;51.50
28087;DHT22;15392;48.912;8.380;2023-02-13T05:07:19;7.90;51.60
28087;DHT22;15392;48.912;8.380;2023-02-13T05:09:45;7.90;51.50
28087;DHT22;15392;48.912;8.380;2023-02-13T05:12:10;7.90;51.60
28087;DHT22;15392;48.912;8.380;2023-02-13T05:14:36;7.90;51.50
28087;DHT22;15392;48.912;8.380;2023-02-13T05:17:02;7.90;51.50
28087;DHT22;15392;48.912;8.380;2023-02-13T05:19:27;7.90;51.40
28087;DHT22;15392;48.912;8.380;2023-02-13T05:21:53;7.90;51.40
28087;DHT22;15392;48.912;8.380;2023-02-13T05:24:37;7.80;51.40
28087;DHT22;15392;48.912;8.380;2023-02-13T05:27:03;7.80;51.40
28087;DHT22;15392;48.912;8.380;2023-02-13T05:29:28;7.70;51.40
28087;DHT22;15392;48.912;8.380;2023-02-13T05:31:56;7.70;51.40
28087;DHT22;15392;48.912;8.380;2023-02-13T05:34:24;7.70;51.40
28087;DHT22;15392;48.912;8.380;2023-02-13T05:36:51;7.70;51.40
28087;DHT22;15392;48.912;8.380;2023-02-13T05:39:17;7.70;51.40
28087;DHT22;15392;48.912;8.380;2023-02-13T05:41:43;7.60;51.50
28087;DHT22;15392;48.912;8.380;2023-02-13T05:44:10;7.60;51.60
28087;DHT22;15392;48.912;8.380;2023-02-13T05:46:38;7.60;51.70
28087;DHT22;15392;48.912;8.380;2023-02-13T05:49:05;7.60;51.80
28087;DHT22;15392;48.912;8.380;2023-02-13T05:51:31;7.50;51.80
28087;DHT22;15392;48.912;8.380;2023-02-13T05:53:57;7.50;51.80
28087;DHT22;15392;48.912;8.380;2023-02-13T05:56:22;7.50;51.90
28087;DHT22;15392;48.912;8.380;2023-02-13T05:58:52;7.50;51.90
28087;DHT22;15392;48.912;8.380;2023-02-13T06:01:19;7.50;51.80
28087;DHT22;15392;48.912;8.380;2023-02-13T06:03:45;7.50;51.70
28087;DHT22;15392;48.912;8.380;2023-02-13T06:06:11;7.50;51.70
28087;DHT22;15392;48.912;8.380;2023-02-13T06:08:37;7.50;51.70
28087;DHT22;15392;48.912;8.380;2023-02-13T06:11:03;7.50;51.70
28087;DHT22;15392;48.912;8.380;2023-02-13T06:13:29;7.50;51.70
28087;DHT22;15392;48.912;8.380;2023-02-13T06:15:55;7.40;51.60
28087;DHT22;15392;48.912;8.380;2023-02-13T06:18:21;7.40;51.60
28087;DHT22;15392;48.912;8.380;2023-02-13T06:20:47;7.40;51.60
28087;DHT22;15392;48.912;8.380;2023-02-13T06:23:13;7.40;51.60
28087;DHT22;15392;48.912;8.380;2023-02-13T06:25:39;7.40;51.60
28087;DHT22;15392;48.912;8.380;2023-02-13T06:28:05;7.40;51.60
28087;DHT22;15392;48.912;8.380;2023-02-13T06:30:31;7.30;51.60
28087;DHT22;15392;48.912;8.380;2023-02-13T06:32:57;7.30;52.20
28087;DHT22;15392;48.912;8.380;2023-02-13T06:35:23;7.30;51.60
28087;DHT22;15392;48.912;8.380;2023-02-13T06:37:49;7.30;51.60
28087;DHT22;15392;48.912;8.380;2023-02-13T06:40:15;7.30;51.60
28087;DHT22;15392;48.912;8.380;2023-02-13T06:42:43;7.30;51.70
28087;DHT22;15392;48.912;8.380;2023-02-13T06:45:09;7.30;51.70
28087;DHT22;15392;48.912;8.380;2023-02-13T06:47:40;7.30;51.80
28087;DHT22;15392;48.912;8.380;2023-02-13T06:50:07;7.30;51.90
28087;DHT22;15392;48.912;8.380;2023-02-13T06:52:33;7.30;51.80
28087;DHT22;15392;48.912;8.380;2023-02-13T06:55:00;7.30;51.80
28087;DHT22;15392;48.912;8.380;2023-02-13T06:57:26;7.30;51.80
28087;DHT22;15392;48.912;8.380;2023-02-13T06:59:51;7.30;51.70
28087;DHT22;15392;48.912;8.380;2023-02-13T07:02:17;7.30;51.80
28087;DHT22;15392;48.912;8.380;2023-02-13T07:04:43;7.30;51.80
28087;DHT22;15392;48.912;8.380;2023-02-13T07:07:09;7.30;51.90
28087;DHT22;15392;48.912;8.380;2023-02-13T07:09:35;7.30;51.90
28087;DHT22;15392;48.912;8.380;2023-02-13T07:12:03;7.30;51.90
28087;DHT22;15392;48.912;8.380;2023-02-13T07:14:30;7.30;51.90
28087;DHT22;15392;48.912;8.380;2023-02-13T07:16:56;7.30;52.00
28087;DHT22;15392;48.912;8.380;2023-02-13T07:19:22;7.30;52.00
28087;DHT22;15392;48.912;8.380;2023-02-13T07:21:48;7.30;52.00
28087;DHT22;15392;48.912;8.380;2023-02-13T07:24:13;7.30;52.00
28087;DHT22;15392;48.912;8.380;2023-02-13T07:26:39;7.30;52.00
28087;DHT22;15392;48.912;8.380;2023-02-13T07:29:05;7.30;52.00
28087;DHT22;15392;48.912;8.380;2023-02-13T07:31:32;7.20;51.90
28087;DHT22;15392;48.912;8.380;2023-02-13T07:33:58;7.20;52.10
28087;DHT22;15392;48.912;8.380;2023-02-13T07:36:25;7.20;52.10
28087;DHT22;15392;48.912;8.380;2023-02-13T07:38:51;7.20;52.20
28087;DHT22;15392;48.912;8.380;2023-02-13T07:41:17;7.10;52.30
28087;DHT22;15392;48.912;8.380;2023-02-13T07:43:43;7.10;52.40
28087;DHT22;15392;48.912;8.380;2023-02-13T07:46:09;7.10;52.30
28087;DHT22;15392;48.912;8.380;2023-02-13T07:48:35;7.10;52.30
28087;DHT22;15392;48.912;8.380;2023-02-13T07:51:02;7.00;52.20
28087;DHT22;15392;48.912;8.380;2023-02-13T07:53:30;7.00;52.30
28087;DHT22;15392;48.912;8.380;2023-02-13T07:55:56;7.00;52.30
28087;DHT22;15392;48.912;8.380;2023-02-13T07:58:22;6.90;52.40
28087;DHT22;15392;48.912;8.380;2023-02-13T08:00:48;7.00;52.50
28087;DHT22;15392;48.912;8.380;2023-02-13T08:03:14;7.00;52.50
28087;DHT22;15392;48.912;8.380;2023-02-13T08:05:40;7.00;52.70
28087;DHT22;15392;48.912;8.380;2023-02-13T08:08:06;7.00;52.70
28087;DHT22;15392;48.912;8.380;2023-02-13T08:10:31;7.00;52.70
28087;DHT22;15392;48.912;8.380;2023-02-13T08:13:16;7.00;52.80
28087;DHT22;15392;48.912;8.380;2023-02-13T08:15:42;7.00;52.90
28087;DHT22;15392;48.912;8.380;2023-02-13T08:18:11;7.00;53.60
28087;DHT22;15392;48.912;8.380;2023-02-13T08:20:37;7.00;53.00
28087;DHT22;15392;48.912;8.380;2023-02-13T08:23:08;7.10;53.20
28087;DHT22;15392;48.912;8.380;2023-02-13T08:25:36;7.10;53.30
28087;DHT22;15392;48.912;8.380;2023-02-13T08:28:03;7.10;53.30
28087;DHT22;15392;48.912;8.380;2023-02-13T08:30:29;7.10;53.50
28087;DHT22;15392;48.912;8.380;2023-02-13T08:32:55;7.10;53.40
28087;DHT22;15392;48.912;8.380;2023-02-13T08:35:22;7.10;53.70
28087;DHT22;15392;48.912;8.380;2023-02-13T08:37:51;7.20;53.60
28087;DHT22;15392;48.912;8.380;2023-02-13T08:40:18;7.10;53.70
28087;DHT22;15392;48.912;8.380;2023-02-13T08:42:44;7.10;53.80
28087;DHT22;15392;48.912;8.380;2023-02-13T08:45:09;7.10;53.80
28087;DHT22;15392;48.912;8.380;2023-02-13T08:47:36;7.10;53.80
28087;DHT22;15392;48.912;8.380;2023-02-13T08:50:04;7.10;53.80
28087;DHT22;15392;48.912;8.380;2023-02-13T08:52:31;7.10;54.30
28087;DHT22;15392;48.912;8.380;2023-02-13T08:54:56;7.10;54.50
28087;DHT22;15392;48.912;8.380;2023-02-13T08:57:22;7.10;54.60
28087;DHT22;15392;48.912;8.380;2023-02-13T08:59:48;7.10;54.40
28087;DHT22;15392;48.912;8.380;2023-02-13T09:02:13;7.10;54.20
28087;DHT22;15392;48.912;8.380;2023-02-13T09:04:39;7.10;54.20
28087;DHT22;15392;48.912;8.380;2023-02-13T09:07:05;7.10;54.40
28087;DHT22;15392;48.912;8.380;2023-02-13T09:09:32;7.10;54.20
28087;DHT22;15392;48.912;8.380;2023-02-13T09:11:57;7.20;54.40
28087;DHT22;15392;48.912;8.380;2023-02-13T09:14:25;7.20;54.90
28087;DHT22;15392;48.912;8.380;2023-02-13T09:16:51;7.20;54.50
28087;DHT22;15392;48.912;8.380;2023-02-13T09:19:17;7.20;55.30
28087;DHT22;15392;48.912;8.380;2023-02-13T09:21:42;7.20;55.40
28087;DHT22;15392;48.912;8.380;2023-02-13T09:24:09;7.20;55.10
28087;DHT22;15392;48.912;8.380;2023-02-13T09:26:35;7.30;55.10
28087;DHT22;15392;48.912;8.380;2023-02-13T09:29:01;7.30;54.90
28087;DHT22;15392;48.912;8.380;2023-02-13T09:31:27;7.30;55.10
28087;DHT22;15392;48.912;8.380;2023-02-13T09:33:53;7.30;54.90
28087;DHT22;15392;48.912;8.380;2023-02-13T09:36:21;7.40;55.00
28087;DHT22;15392;48.912;8.380;2023-02-13T09:38:53;7.40;55.10
28087;DHT22;15392;48.912;8.380;2023-02-13T09:41:28;7.50;55.30
28087;DHT22;15392;48.912;8.380;2023-02-13T09:43:57;7.60;55.30
28087;DHT22;15392;48.912;8.380;2023-02-13T09:46:30;7.50;54.90
28087;DHT22;15392;48.912;8.380;2023-02-13T09:49:00;7.60;54.90
28087;DHT22;15392;48.912;8.380;2023-02-13T09:51:30;7.70;54.80
28087;DHT22;15392;48.912;8.380;2023-02-13T09:54:02;7.70;54.80
28087;DHT22;15392;48.912;8.380;2023-02-13T09:56:54;7.80;55.00
28087;DHT22;15392;48.912;8.380;2023-02-13T10:00:03;7.80;55.30
28087;DHT22;15392;48.912;8.380;2023-02-13T10:12:04;7.90;54.80
28087;DHT22;15392;48.912;8.380;2023-02-13T10:17:38;7.90;54.50
28087;DHT22;15392;48.912;8.380;2023-02-13T10:23:15;8.00;54.80
28087;DHT22;15392;48.912;8.380;2023-02-13T10:29:03;8.00;55.00
28087;DHT22;15392;48.912;8.380;2023-02-13T10:31:51;8.10;54.60
28087;DHT22;15392;48.912;8.380;2023-02-13T10:34:21;8.10;54.30
28087;DHT22;15392;48.912;8.380;2023-02-13T10:36:49;8.20;54.40
28087;DHT22;15392;48.912;8.380;2023-02-13T10:45:25;8.30;54.20
28087;DHT22;15392;48.912;8.380;2023-02-13T10:51:54;8.50;54.50
28087;DHT22;15392;48.912;8.380;2023-02-13T10:54:59;8.50;54.20
28087;DHT22;15392;48.912;8.380;2023-02-13T11:03:44;8.70;54.30
28087;DHT22;15392;48.912;8.380;2023-02-13T11:06:14;8.80;54.00
28087;DHT22;15392;48.912;8.380;2023-02-13T11:08:45;8.80;54.00
28087;DHT22;15392;48.912;8.380;2023-02-13T11:14:24;8.90;54.30
28087;DHT22;15392;48.912;8.380;2023-02-13T11:17:03;8.90;54.20
28087;DHT22;15392;48.912;8.380;2023-02-13T11:22:07;9.00;54.10
28087;DHT22;15392;48.912;8.380;2023-02-13T11:24:36;9.00;54.00
28087;DHT22;15392;48.912;8.380;2023-02-13T11:27:07;9.10;53.90
28087;DHT22;15392;48.912;8.380;2023-02-13T11:29:54;9.10;53.70
28087;DHT22;15392;48.912;8.380;2023-02-13T11:32:27;9.20;54.10
28087;DHT22;15392;48.912;8.380;2023-02-13T11:34:54;9.20;54.20
28087;DHT22;15392;48.912;8.380;2023-02-13T11:37:26;9.30;54.10
28087;DHT22;15392;48.912;8.380;2023-02-13T11:39:58;9.40;54.30
28087;DHT22;15392;48.912;8.380;2023-02-13T11:42:31;9.60;54.30
28087;DHT22;15392;48.912;8.380;2023-02-13T11:45:19;9.70;54.10
28087;DHT22;15392;48.912;8.380;2023-02-13T11:47:46;9.90;54.20
28087;DHT22;15392;48.912;8.380;2023-02-13T11:50:33;10.00;54.20
28087;DHT22;15392;48.912;8.380;2023-02-13T11:53:29;10.30;54.60
28087;DHT22;15392;48.912;8.380;2023-02-13T11:58:37;10.70;53.80
28087;DHT22;15392;48.912;8.380;2023-02-13T12:03:33;11.00;52.90
28087;DHT22;15392;48.912;8.380;2023-02-13T12:08:36;11.20;52.60
28087;DHT22;15392;48.912;8.380;2023-02-13T12:11:27;11.40;52.90
28087;DHT22;15392;48.912;8.380;2023-02-13T12:14:22;11.70;53.00
28087;DHT22;15392;48.912;8.380;2023-02-13T12:16:54;12.00;52.80
28087;DHT22;15392;48.912;8.380;2023-02-13T12:19:32;12.10;52.20
28087;DHT22;15392;48.912;8.380;2023-02-13T12:22:24;12.20;51.70
28087;DHT22;15392;48.912;8.380;2023-02-13T12:25:31;12.20;51.30
28087;DHT22;15392;48.912;8.380;2023-02-13T12:40:35;12.20;50.90
28087;DHT22;15392;48.912;8.380;2023-02-13T13:14:43;12.30;51.30
28087;DHT22;15392;48.912;8.380;2023-02-13T13:17:34;12.40;51.20
28087;DHT22;15392;48.912;8.380;2023-02-13T13:23:12;12.40;51.20
28087;DHT22;15392;48.912;8.380;2023-02-13T13:25:50;12.40;51.30
28087;DHT22;15392;48.912;8.380;2023-02-13T13:28:25;12.40;51.20
28087;DHT22;15392;48.912;8.380;2023-02-13T13:30:55;12.40;51.20
28087;DHT22;15392;48.912;8.380;2023-02-13T13:33:24;12.50;51.20
28087;DHT22;15392;48.912;8.380;2023-02-13T13:39:00;12.50;51.40
28087;DHT22;15392;48.912;8.380;2023-02-13T13:42:07;12.50;51.30
28087;DHT22;15392;48.912;8.380;2023-02-13T13:44:49;12.40;51.30
28087;DHT22;15392;48.912;8.380;2023-02-13T13:50:29;12.50;51.30
28087;DHT22;15392;48.912;8.380;2023-02-13T13:53:19;12.50;51.50
28087;DHT22;15392;48.912;8.380;2023-02-13T13:58:41;12.50;51.60
28087;DHT22;15392;48.912;8.380;2023-02-13T14:01:23;12.50;51.40
28087;DHT22;15392;48.912;8.380;2023-02-13T14:03:56;12.40;51.40
28087;DHT22;15392;48.912;8.380;2023-02-13T14:07:13;12.50;51.40
28087;DHT22;15392;48.912;8.380;2023-02-13T14:09:40;12.50;51.40
28087;DHT22;15392;48.912;8.380;2023-02-13T14:14:52;12.50;51.60
28087;DHT22;15392;48.912;8.380;2023-02-13T14:21:09;12.50;51.40
28087;DHT22;15392;48.912;8.380;2023-02-13T14:31:22;12.50;51.50
28087;DHT22;15392;48.912;8.380;2023-02-13T14:34:02;12.50;51.50
28087;DHT22;15392;48.912;8.380;2023-02-13T14:36:32;12.50;51.50
28087;DHT22;15392;48.912;8.380;2023-02-13T14:39:06;12.50;51.50
28087;DHT22;15392;48.912;8.380;2023-02-13T14:47:46;12.60;51.50
28087;DHT22;15392;48.912;8.380;2023-02-13T14:50:15;12.60;51.40
28087;DHT22;15392;48.912;8.380;2023-02-13T14:52:45;12.60;51.50
28087;DHT22;15392;48.912;8.380;2023-02-13T14:55:15;12.60;51.50
28087;DHT22;15392;48.912;8.380;2023-02-13T14:58:21;12.60;51.50
28087;DHT22;15392;48.912;8.380;2023-02-13T15:00:54;12.60;51.50
28087;DHT22;15392;48.912;8.380;2023-02-13T15:03:37;12.60;51.40
28087;DHT22;15392;48.912;8.380;2023-02-13T15:06:33;12.60;51.40
28087;DHT22;15392;48.912;8.380;2023-02-13T15:09:05;12.60;51.40
28087;DHT22;15392;48.912;8.380;2023-02-13T15:11:41;12.60;51.30
28087;DHT22;15392;48.912;8.380;2023-02-13T15:17:13;12.60;51.40
28087;DHT22;15392;48.912;8.380;2023-02-13T15:19:47;12.60;51.30
28087;DHT22;15392;48.912;8.380;2023-02-13T15:22:19;12.60;51.30
28087;DHT22;15392;48.912;8.380;2023-02-13T15:24:58;12.60;51.30
28087;DHT22;15392;48.912;8.380;2023-02-13T15:27:29;12.60;51.30
28087;DHT22;15392;48.912;8.380;2023-02-13T15:30:03;12.60;51.30
28087;DHT22;15392;48.912;8.380;2023-02-13T15:32:53;12.60;51.30
28087;DHT22;15392;48.912;8.380;2023-02-13T15:35:24;12.60;51.30
28087;DHT22;15392;48.912;8.380;2023-02-13T15:37:55;12.60;51.30
28087;DHT22;15392;48.912;8.380;2023-02-13T15:40:30;12.60;51.30
28087;DHT22;15392;48.912;8.380;2023-02-13T15:42:59;12.60;51.30
28087;DHT22;15392;48.912;8.380;2023-02-13T15:45:27;12.60;51.30
28087;DHT22;15392;48.912;8.380;2023-02-13T15:47:54;12.60;51.30
28087;DHT22;15392;48.912;8.380;2023-02-13T15:50:30;12.60;51.20
28087;DHT22;15392;48.912;8.380;2023-02-13T15:52:59;12.60;51.30
28087;DHT22;15392;48.912;8.380;2023-02-13T15:55:30;12.50;51.20
28087;DHT22;15392;48.912;8.380;2023-02-13T15:57:59;12.50;51.20
28087;DHT22;15392;48.912;8.380;2023-02-13T16:00:36;12.50;51.20
28087;DHT22;15392;48.912;8.380;2023-02-13T16:03:07;12.50;51.20
28087;DHT22;15392;48.912;8.380;2023-02-13T16:05:39;12.50;51.20
28087;DHT22;15392;48.912;8.380;2023-02-13T16:08:28;12.50;51.20
28087;DHT22;15392;48.912;8.380;2023-02-13T16:16:32;12.40;51.30
28087;DHT22;15392;48.912;8.380;2023-02-13T16:19:00;12.40;51.20
28087;DHT22;15392;48.912;8.380;2023-02-13T16:21:28;12.30;51.10
28087;DHT22;15392;48.912;8.380;2023-02-13T16:24:05;12.30;51.20
28087;DHT22;15392;48.912;8.380;2023-02-13T16:26:34;12.30;51.20
28087;DHT22;15392;48.912;8.380;2023-02-13T16:29:01;12.30;51.20
28087;DHT22;15392;48.912;8.380;2023-02-13T16:31:27;12.30;51.20
28087;DHT22;15392;48.912;8.380;2023-02-13T16:33:53;12.30;51.20
28087;DHT22;15392;48.912;8.380;2023-02-13T16:36:27;12.20;51.20
28087;DHT22;15392;48.912;8.380;2023-02-13T16:38:54;12.20;51.10
28087;DHT22;15392;48.912;8.380;2023-02-13T16:43:50;12.10;51.00
28087;DHT22;15392;48.912;8.380;2023-02-13T16:46:34;12.00;51.00
28087;DHT22;15392;48.912;8.380;2023-02-13T16:51:45;12.00;51.00
28087;DHT22;15392;48.912;8.380;2023-02-13T16:57:04;11.80;50.90
28087;DHT22;15392;48.912;8.380;2023-02-13T17:02:15;11.60;50.90
28087;DHT22;15392;48.912;8.380;2023-02-13T17:07:44;11.50;50.90
28087;DHT22;15392;48.912;8.380;2023-02-13T17:12:58;11.30;51.00
28087;DHT22;15392;48.912;8.380;2023-02-13T17:15:28;11.20;51.00
28087;DHT22;15392;48.912;8.380;2023-02-13T17:17:55;11.20;51.10
28087;DHT22;15392;48.912;8.380;2023-02-13T17:20:29;11.10;51.10
28087;DHT22;15392;48.912;8.380;2023-02-13T17:22:58;11.00;51.20
28087;DHT22;15392;48.912;8.380;2023-02-13T17:25:31;10.90;51.20
28087;DHT22;15392;48.912;8.380;2023-02-13T17:28:00;10.80;51.30
28087;DHT22;15392;48.912;8.380;2023-02-13T17:30:34;10.80;52.00
28087;DHT22;15392;48.912;8.380;2023-02-13T17:33:29;10.70;51.50
28087;DHT22;15392;48.912;8.380;2023-02-13T17:35:58;10.60;51.70
28087;DHT22;15392;48.912;8.380;2023-02-13T17:38:24;10.60;51.50
28087;DHT22;15392;48.912;8.380;2023-02-13T17:40:50;10.50;51.60
28087;DHT22;15392;48.912;8.380;2023-02-13T17:43:18;10.40;51.70
28087;DHT22;15392;48.912;8.380;2023-02-13T17:45:45;10.30;51.70
28087;DHT22;15392;48.912;8.380;2023-02-13T17:48:12;10.30;51.80
28087;DHT22;15392;48.912;8.380;2023-02-13T17:50:38;10.20;51.80
28087;DHT22;15392;48.912;8.380;2023-02-13T17:53:06;10.20;52.00
28087;DHT22;15392;48.912;8.380;2023-02-13T17:55:38;10.10;52.10
28087;DHT22;15392;48.912;8.380;2023-02-13T17:58:04;10.00;52.20
28087;DHT22;15392;48.912;8.380;2023-02-13T18:00:31;10.00;52.20
28087;DHT22;15392;48.912;8.380;2023-02-13T18:02:59;10.00;52.20
28087;DHT22;15392;48.912;8.380;2023-02-13T18:05:25;9.90;52.20
28087;DHT22;15392;48.912;8.380;2023-02-13T18:07:52;9.80;52.30
28087;DHT22;15392;48.912;8.380;2023-02-13T18:10:18;9.80;52.40
28087;DHT22;15392;48.912;8.380;2023-02-13T18:12:47;9.80;52.40
28087;DHT22;15392;48.912;8.380;2023-02-13T18:15:14;9.70;52.40
28087;DHT22;15392;48.912;8.380;2023-02-13T18:17:40;9.60;52.50
28087;DHT22;15392;48.912;8.380;2023-02-13T18:20:09;9.60;52.60
28087;DHT22;15392;48.912;8.380;2023-02-13T18:22:40;9.60;52.70
28087;DHT22;15392;48.912;8.380;2023-02-13T18:25:06;9.50;52.80
28087;DHT22;15392;48.912;8.380;2023-02-13T18:27:32;9.50;52.70
28087;DHT22;15392;48.912;8.380;2023-02-13T18:29:58;9.50;52.80
28087;DHT22;15392;48.912;8.380;2023-02-13T18:32:24;9.40;52.70
28087;DHT22;15392;48.912;8.380;2023-02-13T18:34:50;9.40;52.80
28087;DHT22;15392;48.912;8.380;2023-02-13T18:37:17;9.30;52.80
28087;DHT22;15392;48.912;8.380;2023-02-13T18:39:43;9.30;52.80
28087;DHT22;15392;48.912;8.380;2023-02-13T18:42:09;9.30;52.90
28087;DHT22;15392;48.912;8.380;2023-02-13T18:44:38;9.20;52.90
28087;DHT22;15392;48.912;8.380;2023-02-13T18:47:04;9.20;53.00
28087;DHT22;15392;48.912;8.380;2023-02-13T18:49:30;9.20;53.10
28087;DHT22;15392;48.912;8.380;2023-02-13T18:51:56;9.20;53.00
28087;DHT22;15392;48.912;8.380;2023-02-13T18:54:22;9.20;53.00
28087;DHT22;15392;48.912;8.380;2023-02-13T18:56:47;9.10;53.00
28087;DHT22;15392;48.912;8.380;2023-02-13T18:59:13;9.10;53.10
28087;DHT22;15392;48.912;8.380;2023-02-13T19:01:40;9.10;53.10
28087;DHT22;15392;48.912;8.380;2023-02-13T19:04:06;9.00;53.10
28087;DHT22;15392;48.912;8.380;2023-02-13T19:06:32;9.00;53.10
28087;DHT22;15392;48.912;8.380;2023-02-13T19:08:58;9.00;53.10
28087;DHT22;15392;48.912;8.380;2023-02-13T19:11:25;9.00;53.10
28087;DHT22;15392;48.912;8.380;2023-02-13T19:13:56;8.90;53.20
28087;DHT22;15392;48.912;8.380;2023-02-13T19:16:25;8.90;53.20
28087;DHT22;15392;48.912;8.380;2023-02-13T19:18:52;8.90;53.10
28087;DHT22;15392;48.912;8.380;2023-02-13T19:21:22;8.90;53.10
28087;DHT22;15392;48.912;8.380;2023-02-13T19:23:49;8.90;53.10
28087;DHT22;15392;48.912;8.380;2023-02-13T19:26:18;8.80;53.10